createdAt,value
2019-02-17T00:01:52.219Z,5.30
2019-02-17T00:07:05.359Z,5.40
2019-02-17T00:12:12.547Z,5.30
2019-02-17T00:17:19.977Z,5.30
2019-02-17T00:22:28.171Z,5.30
2019-02-17T00:27:34.328Z,5.30
2019-02-17T00:32:41.254Z,5.10
2019-02-17T00:37:51.629Z,5.00
2019-02-17T00:42:59.777Z,5.00
2019-02-17T00:48:05.817Z,4.90
2019-02-17T00:53:17.951Z,4.80
2019-02-17T00:58:24.088Z,4.80
2019-02-17T01:03:31.895Z,4.90
2019-02-17T01:08:39.566Z,5.00
2019-02-17T01:13:46.862Z,4.90
2019-02-17T01:18:54.955Z,5.10
2019-02-17T01:24:02.855Z,5.10
2019-02-17T01:29:19.733Z,5.10
2019-02-17T01:34:19.440Z,5.20
2019-02-17T01:39:27.690Z,5.30
2019-02-17T01:44:34.895Z,5.10
2019-02-17T01:49:43.960Z,5.10
2019-02-17T01:54:52.909Z,5.00
2019-02-17T02:00:01.739Z,5.20
2019-02-17T02:05:08.439Z,5.30
2019-02-17T02:10:14.699Z,5.20
2019-02-17T02:15:24.381Z,5.30
2019-02-17T02:20:33.460Z,5.20
2019-02-17T02:25:41.455Z,5.10
2019-02-17T02:30:48.922Z,4.90
2019-02-17T02:35:55.268Z,4.80
2019-02-17T02:41:03.182Z,4.70
2019-02-17T02:46:09.623Z,4.70
2019-02-17T02:51:17.052Z,4.50
2019-02-17T02:56:24.893Z,4.60
2019-02-17T03:01:31.437Z,4.60
2019-02-17T03:06:44.048Z,4.70
2019-02-17T03:11:52.787Z,4.60
2019-02-17T03:17:00.819Z,4.60
2019-02-17T03:22:08.916Z,4.70
2019-02-17T03:27:15.062Z,4.80
2019-02-17T03:32:22.738Z,4.80
2019-02-17T03:37:30.641Z,4.80
2019-02-17T03:42:38.980Z,4.80
2019-02-17T03:47:45.410Z,4.70
2019-02-17T03:52:55.227Z,5.50
2019-02-17T03:58:04.524Z,5.70
2019-02-17T04:03:14.905Z,5.80
2019-02-17T04:08:21.039Z,5.80
2019-02-17T04:13:33.275Z,5.50
2019-02-17T04:18:41.014Z,5.60
2019-02-17T04:23:50.478Z,5.50
2019-02-17T04:28:59.271Z,5.70
2019-02-17T04:34:09.644Z,5.70
2019-02-17T04:39:16.304Z,5.80
2019-02-17T04:44:24.833Z,5.00
2019-02-17T04:49:33.846Z,4.90
2019-02-17T04:54:42.779Z,4.90
2019-02-17T04:59:50.558Z,5.10
2019-02-17T05:04:58.142Z,5.10
2019-02-17T05:10:05.135Z,5.20
2019-02-17T05:15:13.410Z,5.20
2019-02-17T05:20:20.827Z,5.30
2019-02-17T05:25:28.897Z,5.40
2019-02-17T05:30:35.457Z,5.60
2019-02-17T05:35:43.345Z,5.60
2019-02-17T05:40:50.203Z,5.90
2019-02-17T05:45:57.744Z,5.80
2019-02-17T05:51:03.666Z,5.80
2019-02-17T05:56:14.242Z,5.90
2019-02-17T06:01:23.544Z,6.00
2019-02-17T06:06:31.206Z,5.90
2019-02-17T06:11:39.666Z,6.00
2019-02-17T06:16:49.285Z,6.10
2019-02-17T06:21:57.622Z,6.20
2019-02-17T06:27:05.337Z,5.90
2019-02-17T06:32:14.451Z,5.90
2019-02-17T06:37:22.411Z,6.00
2019-02-17T06:42:31.402Z,6.10
2019-02-17T06:47:40.079Z,6.30
2019-02-17T06:52:48.380Z,6.40
2019-02-17T06:57:55.488Z,6.40
2019-02-17T07:03:04.333Z,6.40
2019-02-17T07:08:12.350Z,6.50
2019-02-17T07:13:21.414Z,6.40
2019-02-17T07:18:27.691Z,6.40
2019-02-17T07:23:36.466Z,6.50
2019-02-17T07:28:44.316Z,6.40
2019-02-17T07:33:51.779Z,6.50
2019-02-17T07:38:58.919Z,7.10
2019-02-17T07:44:05.407Z,7.50
2019-02-17T07:49:11.560Z,7.90
2019-02-17T07:54:18.690Z,8.10
2019-02-17T07:59:24.802Z,8.30
2019-02-17T08:04:32.316Z,8.50
2019-02-17T08:09:41.736Z,8.70
2019-02-17T08:14:47.859Z,8.80
2019-02-17T08:19:53.926Z,9.00
2019-02-17T08:25:01.679Z,9.40
2019-02-17T08:30:09.950Z,9.70
2019-02-17T08:35:16.028Z,9.90
2019-02-17T08:40:22.830Z,10.00
2019-02-17T08:45:30.359Z,10.20
2019-02-17T08:50:37.911Z,10.30
2019-02-17T08:55:46.142Z,10.70
2019-02-17T09:00:53.742Z,10.90
2019-02-17T09:06:02.921Z,11.10
2019-02-17T09:11:10.015Z,11.30
2019-02-17T09:16:18.585Z,11.40
2019-02-17T09:21:35.212Z,11.60
2019-02-17T09:26:57.140Z,11.80
2019-02-17T09:32:16.857Z,12.00
2019-02-17T09:37:32.796Z,12.20
2019-02-17T09:42:40.289Z,12.40
2019-02-17T09:47:46.372Z,12.50
2019-02-17T09:52:55.356Z,12.50
2019-02-17T09:58:03.028Z,12.60
2019-02-17T10:03:10.861Z,12.60
2019-02-17T10:08:18.833Z,12.60
2019-02-17T10:13:26.236Z,12.60
2019-02-17T10:18:33.512Z,13.00
2019-02-17T10:23:41.123Z,13.30
2019-02-17T10:28:48.934Z,13.50
2019-02-17T10:33:55.142Z,13.80
2019-02-17T10:39:02.747Z,14.30
2019-02-17T10:44:10.991Z,14.70
2019-02-17T10:49:19.557Z,15.00
2019-02-17T10:54:27.193Z,15.10
2019-02-17T10:59:33.662Z,15.90
2019-02-17T11:04:41.290Z,16.00
2019-02-17T11:09:47.923Z,16.70
2019-02-17T11:14:54.185Z,16.80
2019-02-17T11:20:02.324Z,16.80
2019-02-17T11:25:09.121Z,16.80
2019-02-17T11:30:17.273Z,17.30
2019-02-17T11:35:29.677Z,16.80
2019-02-17T11:40:39.736Z,17.60
2019-02-17T11:45:48.010Z,17.70
2019-02-17T11:50:56.981Z,17.90
2019-02-17T11:56:04.447Z,18.10
2019-02-17T12:01:11.132Z,17.70
2019-02-17T12:06:19.632Z,17.90
2019-02-17T12:11:27.315Z,17.90
2019-02-17T12:16:36.944Z,18.10
2019-02-17T12:22:20.636Z,18.00
2019-02-17T12:27:45.450Z,17.70
2019-02-17T12:32:53.311Z,17.30
2019-02-17T12:38:01.547Z,17.50
2019-02-17T12:43:09.540Z,17.30
2019-02-17T12:48:17.451Z,17.30
2019-02-17T12:53:25.049Z,17.60
2019-02-17T12:58:34.272Z,18.00
2019-02-17T13:03:42.039Z,18.70
2019-02-17T13:08:49.837Z,19.00
2019-02-17T13:13:57.700Z,18.90
2019-02-17T13:19:05.470Z,18.50
2019-02-17T13:24:13.018Z,18.20
2019-02-17T13:29:22.972Z,18.30
2019-02-17T13:34:30.707Z,18.10
2019-02-17T13:39:37.929Z,18.20
2019-02-17T13:44:44.058Z,18.80
2019-02-17T13:49:51.885Z,19.20
2019-02-17T13:54:58.762Z,19.50
2019-02-17T14:00:05.614Z,20.40
2019-02-17T14:05:13.689Z,20.40
2019-02-17T14:10:22.251Z,20.80
2019-02-17T14:16:07.385Z,20.40
2019-02-17T14:21:16.359Z,21.20
2019-02-17T14:26:23.993Z,21.10
2019-02-17T14:31:32.399Z,21.40
2019-02-17T14:36:40.479Z,21.30
2019-02-17T14:41:47.004Z,21.40
2019-02-17T14:47:01.622Z,21.10
2019-02-17T14:52:03.733Z,21.10
2019-02-17T14:57:11.050Z,20.90
2019-02-17T15:02:18.489Z,20.90
2019-02-17T15:07:25.060Z,21.40
2019-02-17T15:12:44.083Z,21.40
2019-02-17T15:17:52.127Z,21.20
2019-02-17T15:23:04.468Z,21.40
2019-02-17T15:28:12.967Z,21.10
2019-02-17T15:33:20.929Z,20.30
2019-02-17T15:38:27.701Z,20.80
2019-02-17T15:43:37.371Z,20.50
2019-02-17T15:48:47.576Z,19.70
2019-02-17T15:53:55.300Z,19.80
2019-02-17T15:59:03.128Z,19.10
2019-02-17T16:04:10.390Z,18.50
2019-02-17T16:09:21.456Z,18.30
2019-02-17T16:14:28.806Z,17.60
2019-02-17T16:19:35.116Z,17.40
2019-02-17T16:24:43.040Z,17.10
2019-02-17T16:29:51.046Z,16.30
2019-02-17T16:35:03.027Z,15.90
2019-02-17T16:40:12.096Z,15.10
2019-02-17T16:45:19.521Z,14.50
2019-02-17T16:50:31.785Z,14.50
2019-02-17T16:55:38.622Z,14.20
2019-02-17T17:00:45.569Z,14.10
2019-02-17T17:05:53.348Z,13.90
2019-02-17T17:11:01.093Z,13.90
2019-02-17T17:16:09.128Z,13.50
2019-02-17T17:21:17.707Z,13.20
2019-02-17T17:26:26.246Z,13.10
2019-02-17T17:31:33.962Z,13.10
2019-02-17T17:36:41.175Z,12.70
2019-02-17T17:41:47.668Z,12.60
2019-02-17T17:46:54.393Z,12.20
2019-02-17T17:52:02.164Z,12.00
2019-02-17T17:57:09.726Z,12.00
2019-02-17T18:02:17.518Z,11.50
2019-02-17T18:07:25.182Z,11.30
2019-02-17T18:12:33.013Z,11.10
2019-02-17T18:17:40.563Z,11.00
2019-02-17T18:22:48.964Z,10.60
2019-02-17T18:27:54.992Z,10.50
2019-02-17T18:33:01.206Z,10.30
2019-02-17T18:38:08.579Z,10.40
2019-02-17T18:43:15.471Z,10.40
2019-02-17T18:48:26.313Z,10.20
2019-02-17T18:53:33.907Z,10.30
2019-02-17T18:58:41.816Z,10.40
2019-02-17T19:03:48.861Z,10.50
2019-02-17T19:08:55.047Z,10.60
2019-02-17T19:14:06.141Z,10.60
2019-02-17T19:19:13.915Z,10.60
2019-02-17T19:24:21.895Z,10.30
2019-02-17T19:29:29.563Z,10.40
2019-02-17T19:34:37.124Z,10.40
2019-02-17T19:39:44.043Z,10.60
2019-02-17T19:44:58.119Z,10.60
2019-02-17T19:50:04.729Z,10.60
2019-02-17T19:55:12.251Z,10.50
2019-02-17T20:00:18.617Z,10.30
2019-02-17T20:05:27.514Z,10.40
2019-02-17T20:10:34.210Z,10.30
2019-02-17T20:15:42.164Z,10.30
2019-02-17T20:20:50.031Z,10.20
2019-02-17T20:25:58.038Z,10.30
2019-02-17T20:31:07.259Z,10.00
2019-02-17T20:36:14.043Z,9.90
2019-02-17T20:41:21.816Z,9.80
2019-02-17T20:46:28.742Z,9.80
2019-02-17T20:51:35.027Z,9.70
2019-02-17T20:56:41.034Z,9.60
2019-02-17T21:01:48.571Z,9.70
2019-02-17T21:06:54.940Z,9.40
2019-02-17T21:12:13.408Z,9.50
2019-02-17T21:17:23.956Z,9.60
2019-02-17T21:22:31.855Z,9.50
2019-02-17T21:29:10.489Z,9.40
2019-02-17T21:34:02.328Z,9.20
2019-02-17T21:39:36.683Z,9.10
2019-02-17T21:44:45.595Z,9.20
2019-02-17T21:55:40.010Z,9.40
2019-02-17T22:00:53.995Z,9.10
2019-02-17T22:06:02.710Z,9.00
2019-02-17T22:11:10.520Z,9.20
2019-02-17T22:16:20.324Z,9.30
2019-02-17T22:21:28.345Z,9.20
2019-02-17T22:26:40.600Z,9.40
2019-02-17T22:31:53.061Z,9.40
2019-02-17T22:37:03.760Z,9.40
2019-02-17T22:42:26.008Z,9.40
2019-02-17T22:47:30.380Z,9.30
2019-02-17T22:52:47.335Z,9.10
2019-02-17T22:58:15.867Z,9.20
2019-02-17T23:09:12.130Z,9.10
2019-02-17T23:14:33.457Z,9.00
2019-02-17T23:19:44.086Z,9.20
2019-02-17T23:25:01.375Z,9.30
2019-02-17T23:30:19.625Z,9.40
2019-02-17T23:35:33.164Z,9.30
2019-02-17T23:40:39.289Z,9.30
2019-02-17T23:45:46.886Z,9.30
2019-02-17T23:50:54.367Z,9.10
2019-02-17T23:56:02.097Z,9.10
